Time;durP1;ratioP1;P1;durP2;ratioP2;P2;SDS_P1;SDS_P2;PMS_P1;PMS_P2;Temp;Humidity;BMP_temperature;BMP_pressure;BME280_temperature;BME280_humidity;BME280_pressure;Samples;Min_cycle;Max_cycle;Signal;HPM_P1;HPM_P2
2021/09/25 00:01:46;;;;;;;7.25;5.82;;;11.20;99.90;;;;;;6227826;28;20033;-81
2021/09/25 00:04:47;;;;;;;6.95;6.20;;;11.10;99.90;;;;;;6227849;28;20057;-80
2021/09/25 00:07:47;;;;;;;8.88;5.90;;;11.10;99.90;;;;;;6228156;28;20103;-80
2021/09/25 00:10:48;;;;;;;9.48;6.60;;;;;;;;;;6228179;28;20056;-80
2021/09/25 00:13:49;;;;;;;8.38;6.40;;;11.10;99.90;;;;;;6245500;28;20059;-80
2021/09/25 00:16:49;;;;;;;10.93;6.43;;;11.50;99.90;;;;;;6227934;28;20044;-80
2021/09/25 00:19:50;;;;;;;7.43;6.18;;;11.30;99.90;;;;;;6244083;28;20037;-80
2021/09/25 00:22:51;;;;;;;8.15;6.30;;;11.30;99.90;;;;;;6211446;28;20025;-80
2021/09/25 00:25:52;;;;;;;6.40;5.53;;;9.10;99.90;;;;;;6227573;28;20041;-80
2021/09/25 00:28:53;;;;;;;5.88;5.28;;;11.40;99.90;;;;;;6245078;28;20033;-80
2021/09/25 00:31:54;;;;;;;7.60;5.13;;;11.40;99.90;;;;;;6211541;28;20140;-80
2021/09/25 00:34:55;;;;;;;8.23;5.65;;;11.40;99.90;;;;;;6243612;28;20037;-80
2021/09/25 00:37:55;;;;;;;6.47;5.80;;;11.60;99.90;;;;;;6244321;28;20030;-78
2021/09/25 00:40:56;;;;;;;6.50;5.80;;;11.40;99.90;;;;;;6243842;28;20511;-79
2021/09/25 00:43:56;;;;;;;5.57;4.95;;;11.50;99.90;;;;;;6243584;28;20033;-79
2021/09/25 00:46:58;;;;;;;7.00;6.13;;;;;;;;;;6227042;28;20033;-78
2021/09/25 00:49:59;;;;;;;7.72;6.05;;;11.50;99.90;;;;;;6243245;28;20116;-80
2021/09/25 00:52:59;;;;;;;7.50;6.45;;;11.60;99.90;;;;;;6243339;28;20044;-80
2021/09/25 00:56:00;;;;;;;7.20;5.97;;;11.40;99.90;;;;;;6243398;28;20037;-79
2021/09/25 00:59:01;;;;;;;7.43;5.88;;;11.40;99.90;;;;;;6243166;28;20029;-81
2021/09/25 01:02:02;;;;;;;7.90;6.18;;;11.60;99.90;;;;;;6226915;28;20029;-79
2021/09/25 01:05:02;;;;;;;6.20;5.50;;;11.50;99.90;;;;;;6226433;28;20057;-80
2021/09/25 01:08:03;;;;;;;6.20;5.50;;;11.60;99.90;;;;;;6226757;28;20471;-80
2021/09/25 01:11:04;;;;;;;6.20;5.45;;;11.60;99.90;;;;;;6244524;28;20078;-80
2021/09/25 01:14:05;;;;;;;9.25;5.70;;;11.70;99.90;;;;;;6243579;28;20029;-79
2021/09/25 01:17:10;;;;;;;7.78;6.40;;;11.50;99.90;;;;;;6242495;28;20034;-80
2021/09/25 01:20:11;;;;;;;8.07;6.30;;;11.60;99.90;;;;;;6226884;28;20460;-80
2021/09/25 01:23:12;;;;;;;7.07;6.38;;;11.50;99.90;;;;;;6226444;28;20029;-80
2021/09/25 01:26:13;;;;;;;13.00;6.35;;;11.30;99.90;;;;;;6242671;28;20076;-79
2021/09/25 01:29:13;;;;;;;6.95;6.00;;;11.00;99.90;;;;;;6244053;28;20518;-81
2021/09/25 01:32:14;;;;;;;7.38;5.63;;;10.90;99.90;;;;;;6225935;28;20030;-80
2021/09/25 01:35:16;;;;;;;6.88;6.07;;;11.20;99.90;;;;;;6226129;28;20030;-80
2021/09/25 01:38:17;;;;;;;7.93;6.20;;;11.10;99.90;;;;;;6243916;28;20026;-79
2021/09/25 01:41:17;;;;;;;8.18;6.68;;;11.60;99.90;;;;;;6209466;28;20026;-80
2021/09/25 01:44:18;;;;;;;7.63;6.65;;;11.30;99.90;;;;;;6241657;28;20434;-80
2021/09/25 01:47:18;;;;;;;8.35;7.00;;;11.20;99.90;;;;;;6243135;28;20124;-80
2021/09/25 01:50:19;;;;;;;7.72;6.68;;;;;;;;;;6241368;28;20037;-79
2021/09/25 01:53:21;;;;;;;8.32;6.93;;;10.90;99.90;;;;;;6242242;28;20017;-80
2021/09/25 01:56:22;;;;;;;8.73;6.93;;;;;;;;;;6225780;28;20022;-79
2021/09/25 01:59:23;;;;;;;8.98;6.50;;;;;;;;;;6242427;28;20092;-80
2021/09/25 02:02:24;;;;;;;8.60;7.22;;;;;;;;;;6225554;28;20044;-80
2021/09/25 02:05:25;;;;;;;7.97;7.18;;;10.70;99.90;;;;;;6224953;28;20088;-80
2021/09/25 02:08:26;;;;;;;8.68;7.78;;;;;;;;;;6243142;28;20448;-79
2021/09/25 02:11:27;;;;;;;9.02;7.18;;;10.90;99.90;;;;;;6243139;28;20021;-79
2021/09/25 02:14:28;;;;;;;9.45;6.47;;;;;;;;;;6243400;28;20056;-79
2021/09/25 02:17:28;;;;;;;10.20;7.00;;;10.70;99.90;;;;;;6243768;28;20033;-79
2021/09/25 02:20:29;;;;;;;7.88;6.80;;;11.20;99.90;;;;;;6225497;28;20030;-80
2021/09/25 02:23:31;;;;;;;10.57;7.55;;;10.90;99.90;;;;;;6225416;28;20026;-81
2021/09/25 02:26:34;;;;;;;9.05;7.60;;;11.00;99.90;;;;;;6228665;28;20083;-79
2021/09/25 02:29:35;;;;;;;8.20;7.15;;;;;;;;;;6246833;28;20040;-80
2021/09/25 02:32:35;;;;;;;9.82;6.63;;;11.10;99.90;;;;;;6248070;28;20025;-80
2021/09/25 02:35:37;;;;;;;9.07;7.55;;;11.10;99.90;;;;;;6230161;28;20474;-80
2021/09/25 02:38:38;;;;;;;8.43;7.60;;;11.10;99.90;;;;;;6214116;28;20028;-81
2021/09/25 02:41:38;;;;;;;8.38;7.47;;;11.20;99.90;;;;;;6213776;28;20038;-80
2021/09/25 02:44:39;;;;;;;7.53;6.70;;;11.00;99.90;;;;;;6229519;28;20483;-80
2021/09/25 02:47:40;;;;;;;10.65;7.88;;;10.90;99.90;;;;;;6246683;28;20048;-79
2021/09/25 02:50:40;;;;;;;8.90;7.25;;;10.90;99.90;;;;;;6213509;28;20068;-80
2021/09/25 02:53:42;;;;;;;9.45;7.50;;;10.90;99.90;;;;;;6246368;28;20053;-80
2021/09/25 02:56:43;;;;;;;7.80;6.65;;;11.00;99.90;;;;;;6246268;28;20410;-81
2021/09/25 02:59:44;;;;;;;9.75;7.28;;;11.10;99.90;;;;;;6245865;28;20037;-80
2021/09/25 03:02:44;;;;;;;9.50;7.22;;;11.20;99.90;;;;;;6213237;28;20454;-80
2021/09/25 03:05:45;;;;;;;7.22;6.47;;;11.40;99.90;;;;;;6245332;28;20514;-80
2021/09/25 03:08:45;;;;;;;6.75;5.85;;;11.30;99.90;;;;;;6246085;28;20040;-79
2021/09/25 03:11:46;;;;;;;8.00;6.72;;;11.40;99.90;;;;;;6246231;28;20037;-80
2021/09/25 03:14:46;;;;;;;7.68;6.35;;;11.40;99.90;;;;;;6245706;28;20031;-79
2021/09/25 03:17:47;;;;;;;6.60;5.90;;;11.70;99.90;;;;;;6245522;28;20060;-79
2021/09/25 03:20:48;;;;;;;7.75;6.95;;;11.40;99.90;;;;;;6245483;28;20371;-80
2021/09/25 03:23:48;;;;;;;7.90;6.78;;;11.40;99.90;;;;;;6245167;28;20037;-80
2021/09/25 03:26:49;;;;;;;9.65;7.55;;;11.40;99.90;;;;;;6229076;28;20026;-80
2021/09/25 03:29:49;;;;;;;9.20;6.50;;;11.70;99.90;;;;;;6212500;28;20040;-79
2021/09/25 03:32:50;;;;;;;6.82;6.07;;;11.50;99.90;;;;;;6229158;28;20542;-80
2021/09/25 03:35:51;;;;;;;7.40;6.35;;;11.80;99.90;;;;;;6228518;28;20037;-79
2021/09/25 03:38:51;;;;;;;10.15;6.72;;;11.40;99.90;;;;;;6244940;28;20029;-79
2021/09/25 03:41:52;;;;;;;8.80;7.18;;;11.50;99.90;;;;;;6245419;28;20375;-79
2021/09/25 03:44:52;;;;;;;8.35;6.80;;;11.40;99.90;;;;;;6244742;28;20045;-80
2021/09/25 03:47:58;;;;;;;7.70;6.57;;;11.40;99.90;;;;;;6245331;28;20032;-80
2021/09/25 03:50:59;;;;;;;7.05;6.35;;;11.30;99.90;;;;;;6229111;28;20482;-80
2021/09/25 03:53:59;;;;;;;7.70;6.68;;;11.40;99.90;;;;;;6244099;28;20047;-80
2021/09/25 03:57:00;;;;;;;9.38;6.88;;;11.40;99.90;;;;;;6244008;28;20025;-80
2021/09/25 04:00:01;;;;;;;8.23;6.40;;;11.60;99.90;;;;;;6228139;28;20053;-80
2021/09/25 04:03:01;;;;;;;7.40;6.60;;;11.30;99.90;;;;;;6227978;28;20041;-79
2021/09/25 04:06:02;;;;;;;8.95;7.18;;;11.10;99.90;;;;;;6244400;28;20045;-79
2021/09/25 04:09:05;;;;;;;7.97;7.10;;;11.20;99.90;;;;;;6211961;28;20104;-80
2021/09/25 04:12:06;;;;;;;8.98;7.03;;;11.00;99.90;;;;;;6227638;28;20372;-79
2021/09/25 04:15:07;;;;;;;8.40;7.32;;;10.90;99.90;;;;;;6228031;28;20026;-80
2021/09/25 04:18:08;;;;;;;7.70;6.53;;;10.90;99.90;;;;;;6227920;28;20076;-79
2021/09/25 04:21:09;;;;;;;7.70;6.82;;;11.10;99.90;;;;;;6244328;28;20024;-80
2021/09/25 04:24:10;;;;;;;7.60;6.75;;;10.90;99.90;;;;;;6211249;28;20041;-81
2021/09/25 04:27:11;;;;;;;9.20;6.40;;;10.80;99.90;;;;;;6245251;28;20029;-80
2021/09/25 04:30:12;;;;;;;8.20;6.72;;;10.80;99.90;;;;;;6210972;28;20029;-79
2021/09/25 04:33:12;;;;;;;8.95;6.90;;;10.90;99.90;;;;;;6227553;28;20032;-80
2021/09/25 04:36:13;;;;;;;7.05;6.35;;;11.30;99.90;;;;;;6243859;28;20034;-79
2021/09/25 04:39:13;;;;;;;9.18;6.88;;;11.00;99.90;;;;;;6227441;28;20107;-81
2021/09/25 04:42:14;;;;;;;8.48;6.65;;;11.00;99.90;;;;;;6227333;28;20025;-80
2021/09/25 04:45:15;;;;;;;9.23;6.63;;;;;;;;;;6210506;28;20077;-80
2021/09/25 04:48:16;;;;;;;8.02;6.55;;;11.00;99.90;;;;;;6242396;28;20018;-80
2021/09/25 04:51:17;;;;;;;6.97;6.28;;;11.30;99.90;;;;;;6210153;28;20037;-79
2021/09/25 04:54:17;;;;;;;8.18;7.05;;;10.90;99.90;;;;;;6227143;28;20563;-79
2021/09/25 04:57:18;;;;;;;8.75;6.60;;;10.90;99.90;;;;;;6243133;28;20061;-80
2021/09/25 05:00:19;;;;;;;8.48;6.32;;;10.70;99.90;;;;;;6243440;28;20068;-81
2021/09/25 05:03:19;;;;;;;7.95;7.00;;;10.90;99.90;;;;;;6226443;28;20482;-80
2021/09/25 05:06:20;;;;;;;8.18;6.97;;;11.00;99.90;;;;;;6226651;28;20658;-79
2021/09/25 05:09:22;;;;;;;9.90;7.20;;;10.80;99.90;;;;;;6210528;28;20475;-80
2021/09/25 05:12:22;;;;;;;9.93;6.82;;;10.80;99.90;;;;;;6242962;28;20436;-80
2021/09/25 05:15:23;;;;;;;8.75;6.30;;;10.70;99.90;;;;;;6226319;28;20033;-80
2021/09/25 05:18:24;;;;;;;10.13;7.05;;;10.50;99.90;;;;;;6226431;28;20021;-79
2021/09/25 05:21:24;;;;;;;9.98;7.38;;;11.00;99.90;;;;;;6242881;28;20494;-80
2021/09/25 05:24:25;;;;;;;7.88;6.53;;;10.50;99.90;;;;;;6225978;28;20037;-80
2021/09/25 05:27:25;;;;;;;11.93;7.05;;;10.80;99.90;;;;;;6226290;28;20028;-81
2021/09/25 05:30:26;;;;;;;7.85;6.72;;;10.90;99.90;;;;;;6243314;28;20021;-79
2021/09/25 05:33:42;;;;;;;12.05;6.93;;;10.90;99.90;;;;;;6209473;28;20033;-80
2021/09/25 05:36:43;;;;;;;8.35;6.32;;;10.90;99.90;;;;;;6206349;28;20041;-80
2021/09/25 05:39:46;;;;;;;9.27;6.70;;;10.90;99.90;;;;;;6224309;28;20041;-80
2021/09/25 05:42:47;;;;;;;9.65;7.03;;;11.10;99.90;;;;;;6207823;28;20474;-79
2021/09/25 05:45:48;;;;;;;7.75;6.95;;;11.20;99.90;;;;;;6207212;28;20053;-79
2021/09/25 05:48:51;;;;;;;7.95;6.38;;;11.30;99.90;;;;;;6207673;28;20171;-80
2021/09/25 05:51:52;;;;;;;7.10;6.40;;;10.90;99.90;;;;;;6208166;28;20515;-80
2021/09/25 05:54:53;;;;;;;7.95;6.88;;;;;;;;;;6207723;28;20026;-79
2021/09/25 05:57:58;;;;;;;9.80;7.20;;;11.10;99.90;;;;;;6223623;28;20443;-79
2021/09/25 06:00:59;;;;;;;7.45;6.40;;;11.30;99.90;;;;;;6223372;28;20426;-80
2021/09/25 06:03:59;;;;;;;9.15;6.80;;;;;;;;;;6206872;28;20062;-80
2021/09/25 06:07:00;;;;;;;7.78;6.55;;;;;;;;;;6225554;28;20036;-81
2021/09/25 06:10:01;;;;;;;12.10;6.68;;;;;;;;;;6241964;28;20463;-80
2021/09/25 06:13:03;;;;;;;9.07;6.63;;;14.00;99.90;;;;;;6241705;28;20348;-82
2021/09/25 06:16:04;;;;;;;9.98;6.63;;;14.30;99.90;;;;;;6242398;28;20030;-81
2021/09/25 06:19:05;;;;;;;12.52;6.55;;;;;;;;;;6241604;28;20037;-81
2021/09/25 06:22:06;;;;;;;9.77;6.18;;;15.10;99.90;;;;;;6225581;28;20032;-81
2021/09/25 06:25:07;;;;;;;8.30;5.75;;;15.70;99.90;;;;;;6225113;28;20033;-81
2021/09/25 06:28:08;;;;;;;6.22;5.43;;;16.30;99.90;;;;;;6225518;28;20037;-80
2021/09/25 06:41:37;;;;;;;7.10;6.40;;;18.00;99.90;;;;;;6363233;27;20465;-79
2021/09/25 06:44:37;;;;;;;8.20;5.90;;;18.20;99.90;;;;;;6342283;28;20384;-80
2021/09/25 06:47:38;;;;;;;7.00;6.20;;;18.20;99.90;;;;;;6346972;28;20031;-81
2021/09/25 06:50:39;;;;;;;7.95;6.78;;;;;;;;;;6350291;28;20031;-81
2021/09/25 06:53:40;;;;;;;9.43;5.95;;;;;;;;;;6338302;28;20035;-82
2021/09/25 06:56:41;;;;;;;7.03;6.35;;;;;;;;;;6325202;28;20122;-83
2021/09/25 06:59:42;;;;;;;6.53;5.93;;;;;;;;;;6324566;28;20362;-83
2021/09/25 07:02:43;;;;;;;8.52;5.85;;;;;;;;;;6337429;28;20032;-82
2021/09/25 07:05:44;;;;;;;8.63;5.90;;;;;;;;;;6320116;28;20421;-83
2021/09/25 07:08:44;;;;;;;7.75;5.72;;;20.60;99.90;;;;;;6329617;28;20020;-82
2021/09/25 07:11:45;;;;;;;6.10;5.50;;;20.90;99.90;;;;;;6313452;28;20039;-83
2021/09/25 07:14:45;;;;;;;7.10;5.78;;;21.20;99.90;;;;;;6315531;28;20123;-83
2021/09/25 07:17:46;;;;;;;6.85;6.15;;;21.50;99.90;;;;;;6303641;28;20032;-81
2021/09/25 07:20:47;;;;;;;7.22;6.53;;;21.70;99.90;;;;;;6317637;28;20038;-81
2021/09/25 07:23:47;;;;;;;8.75;6.13;;;21.90;99.90;;;;;;6317404;28;20028;-84
2021/09/25 07:26:48;;;;;;;7.15;5.75;;;22.00;99.90;;;;;;6323036;28;20017;-82
2021/09/25 07:29:49;;;;;;;8.00;5.75;;;22.10;99.90;;;;;;6312902;28;20034;-81
2021/09/25 07:32:50;;;;;;;8.85;5.72;;;22.50;99.50;;;;;;6287669;28;20033;-84
2021/09/25 07:35:50;;;;;;;6.85;5.65;;;22.90;99.10;;;;;;6280059;28;20085;-82
2021/09/25 07:38:51;;;;;;;7.75;5.75;;;23.40;97.70;;;;;;6280587;28;20146;-84
2021/09/25 07:41:51;;;;;;;9.73;6.50;;;23.70;97.40;;;;;;6289001;28;20028;-85
2021/09/25 07:44:52;;;;;;;5.72;5.22;;;24.20;95.60;;;;;;6303696;28;20040;-84
2021/09/25 07:47:53;;;;;;;6.93;5.32;;;24.20;95.40;;;;;;6312440;28;20039;-82
2021/09/25 07:50:53;;;;;;;5.72;5.13;;;24.40;94.20;;;;;;6290642;28;20111;-84
2021/09/25 07:53:55;;;;;;;6.10;5.22;;;24.60;93.90;;;;;;6270266;28;20036;-81
2021/09/25 07:56:55;;;;;;;5.60;4.90;;;25.30;98.20;;;;;;6305366;28;20331;-87
2021/09/25 07:59:56;;;;;;;7.60;5.33;;;25.40;92.20;;;;;;6264048;28;20093;-85
2021/09/25 08:02:57;;;;;;;5.80;5.23;;;;;;;;;;6280265;28;20496;-86
2021/09/25 08:05:58;;;;;;;6.43;4.80;;;25.30;90.80;;;;;;6291537;28;20114;-88
2021/09/25 08:08:59;;;;;;;5.67;4.93;;;;;;;;;;6275783;28;20040;-88
2021/09/25 08:11:59;;;;;;;6.27;4.83;;;26.10;88.20;;;;;;6283861;28;20028;-86
2021/09/25 08:15:04;;;;;;;6.23;5.63;;;26.20;87.90;;;;;;6262772;28;20039;-86
2021/09/25 08:18:04;;;;;;;5.38;4.88;;;26.60;88.70;;;;;;6261582;28;20035;-85
2021/09/25 08:21:05;;;;;;;5.67;5.10;;;26.90;86.00;;;;;;6272250;28;20040;-84
2021/09/25 08:24:06;;;;;;;7.27;6.10;;;;;;;;;;6272779;28;20021;-84
2021/09/25 08:27:07;;;;;;;5.23;4.73;;;27.30;81.30;;;;;;6285585;28;20033;-86
2021/09/25 08:30:08;;;;;;;6.40;5.00;;;27.60;81.30;;;;;;6278429;28;20051;-85
2021/09/25 08:33:09;;;;;;;7.15;5.30;;;;;;;;;;6261309;28;20051;-84
2021/09/25 08:36:10;;;;;;;5.43;4.93;;;28.10;77.90;;;;;;6293855;28;20039;-85
2021/09/25 08:39:10;;;;;;;7.33;5.30;;;28.50;78.00;;;;;;6269205;28;20083;-83
2021/09/25 08:42:14;;;;;;;6.57;5.00;;;28.60;76.60;;;;;;6301716;28;20031;-84
2021/09/25 08:45:15;;;;;;;7.47;4.93;;;28.70;76.60;;;;;;6301947;28;20422;-84
2021/09/25 08:48:15;;;;;;;7.57;5.57;;;29.10;76.60;;;;;;6284775;28;20063;-83
2021/09/25 08:51:16;;;;;;;7.17;5.23;;;29.10;75.70;;;;;;6262353;28;20065;-84
2021/09/25 08:54:17;;;;;;;5.63;5.13;;;29.50;74.60;;;;;;6261068;28;20033;-84
2021/09/25 08:57:18;;;;;;;5.40;4.90;;;;;;;;;;6278911;28;20048;-86
2021/09/25 09:00:39;;;;;;;5.90;5.30;;;29.80;71.70;;;;;;6286013;28;20040;-85
2021/09/25 09:03:44;;;;;;;5.85;5.10;;;;;;;;;;6289328;28;20035;-87
2021/09/25 09:06:47;;;;;;;5.45;4.95;;;29.80;71.60;;;;;;6286882;28;20526;-83
2021/09/25 09:09:48;;;;;;;12.70;6.18;;;30.00;73.00;;;;;;6276392;28;20046;-82
2021/09/25 09:12:48;;;;;;;6.13;5.53;;;30.10;74.10;;;;;;6290888;28;20028;-83
2021/09/25 09:15:50;;;;;;;6.97;5.57;;;29.90;74.80;;;;;;6259920;28;20028;-82
2021/09/25 09:18:51;;;;;;;6.30;4.85;;;30.10;73.30;;;;;;6275846;28;20055;-81
2021/09/25 09:21:51;;;;;;;8.73;5.72;;;30.10;71.90;;;;;;6277023;28;20036;-82
2021/09/25 09:24:54;;;;;;;5.70;5.20;;;30.10;71.60;;;;;;6302053;28;20028;-81
2021/09/25 09:27:55;;;;;;;7.22;5.35;;;30.50;71.10;;;;;;6293784;28;20040;-82
2021/09/25 09:30:58;;;;;;;9.13;5.57;;;30.50;70.60;;;;;;6297243;28;20446;-83
2021/09/25 09:34:00;;;;;;;5.55;5.05;;;30.70;71.70;;;;;;6274575;28;20036;-83
2021/09/25 09:37:01;;;;;;;6.63;5.13;;;30.80;68.60;;;;;;6269584;28;20040;-84
2021/09/25 09:40:03;;;;;;;7.40;4.95;;;32.10;70.10;;;;;;6257433;28;20067;-84
2021/09/25 09:43:04;;;;;;;5.90;4.93;;;;;;;;;;6272230;28;20374;-83
2021/09/25 09:46:05;;;;;;;6.00;5.18;;;;;;;;;;6294057;28;20039;-82
2021/09/25 09:49:07;;;;;;;5.57;4.95;;;;;;;;;;6292284;28;20025;-82
2021/09/25 09:52:08;;;;;;;7.32;5.18;;;;;;;;;;6311100;28;20036;-83
2021/09/25 09:55:09;;;;;;;5.45;4.95;;;30.80;69.80;;;;;;6314741;28;20028;-83
2021/09/25 09:58:09;;;;;;;6.05;4.85;;;30.90;65.20;;;;;;6257783;28;20040;-83
2021/09/25 10:01:10;;;;;;;5.13;4.63;;;30.90;66.00;;;;;;6257408;28;20043;-84
2021/09/25 10:04:11;;;;;;;5.60;5.10;;;30.60;66.70;;;;;;6279409;28;20564;-83
2021/09/25 10:07:11;;;;;;;5.60;5.10;;;30.30;68.80;;;;;;6300226;28;20054;-83
2021/09/25 10:10:12;;;;;;;6.23;5.27;;;30.30;69.80;;;;;;6281415;28;20036;-83
2021/09/25 10:13:16;;;;;;;9.40;5.30;;;30.40;70.50;;;;;;6259336;28;20136;-83
2021/09/25 10:16:17;;;;;;;7.85;5.15;;;30.40;69.40;;;;;;6275308;28;20064;-84
2021/09/25 10:19:21;;;;;;;5.78;5.18;;;30.50;72.60;;;;;;6282542;28;20514;-83
2021/09/25 10:22:24;;;;;;;5.20;4.70;;;30.30;68.80;;;;;;6259530;28;20040;-83
2021/09/25 10:25:25;;;;;;;4.90;4.50;;;30.20;70.30;;;;;;6276119;28;20103;-83
2021/09/25 10:28:28;;;;;;;5.77;5.17;;;29.70;71.40;;;;;;6290264;28;20024;-83
2021/09/25 10:31:28;;;;;;;5.55;4.97;;;29.50;72.60;;;;;;6274052;28;20096;-83
2021/09/25 10:34:35;;;;;;;6.37;5.20;;;29.10;72.90;;;;;;6280094;28;20028;-82
2021/09/25 10:37:39;;;;;;;5.95;5.43;;;29.40;72.60;;;;;;6274881;28;20028;-82
2021/09/25 10:40:42;;;;;;;5.65;5.15;;;29.00;73.70;;;;;;6289424;28;20052;-83
2021/09/25 10:43:44;;;;;;;5.75;5.00;;;29.10;73.90;;;;;;6258568;28;20078;-84
2021/09/25 10:46:45;;;;;;;5.50;5.00;;;;;;;;;;6277300;28;20025;-85
2021/09/25 10:49:59;;;;;;;5.60;5.10;;;29.40;72.10;;;;;;6267791;28;20038;-83
2021/09/25 10:53:05;;;;;;;5.90;5.30;;;29.30;71.80;;;;;;6267459;28;20032;-84
2021/09/25 10:56:14;;;;;;;6.45;5.85;;;29.30;72.80;;;;;;6297738;28;20054;-84
2021/09/25 10:59:15;;;;;;;6.38;5.78;;;29.10;74.30;;;;;;6260674;28;20043;-83
2021/09/25 11:02:43;;;;;;;5.93;5.33;;;29.00;72.60;;;;;;6266587;28;20475;-84
2021/09/25 11:06:02;;;;;;;6.28;5.43;;;28.90;73.40;;;;;;6278071;28;20475;-85
2021/09/25 11:09:05;;;;;;;8.00;5.57;;;28.60;74.40;;;;;;6290727;28;20133;-84
2021/09/25 11:12:14;;;;;;;10.25;5.65;;;28.30;74.80;;;;;;6256946;28;20466;-84
2021/09/25 11:15:33;;;;;;;13.27;6.68;;;28.30;75.10;;;;;;6258770;28;20462;-80
2021/09/25 11:18:33;;;;;;;7.20;5.57;;;28.30;75.10;;;;;;6272827;28;20024;-80
2021/09/25 11:21:34;;;;;;;7.27;5.00;;;28.20;90.80;;;;;;6291234;28;20044;-79
2021/09/25 11:24:37;;;;;;;7.27;5.77;;;29.20;75.00;;;;;;6303799;28;20025;-83
2021/09/25 11:27:46;;;;;;;10.80;5.28;;;28.00;87.10;;;;;;6280922;28;20397;-82
2021/09/25 11:30:46;;;;;;;6.22;5.63;;;27.70;90.40;;;;;;6290015;28;20043;-83
2021/09/25 11:33:47;;;;;;;10.37;5.83;;;27.50;91.40;;;;;;6262597;28;20016;-82
2021/09/25 11:36:54;;;;;;;7.97;5.87;;;27.40;80.80;;;;;;6275291;28;20060;-83
2021/09/25 11:39:55;;;;;;;9.07;6.25;;;27.00;78.60;;;;;;6268361;28;20122;-82
